createdAt,value
2024-01-30T05:36:57.041Z,28.10
2024-01-30T05:40:00.003Z,26.90
2024-01-30T05:43:04.163Z,24.92
2024-01-30T05:46:07.744Z,24.73
2024-01-30T05:49:10.260Z,19.67
2024-01-30T05:52:12.900Z,20.90
2024-01-30T05:55:15.510Z,19.55
2024-01-30T05:58:18.130Z,20.50
2024-01-30T06:01:20.805Z,19.17
2024-01-30T06:04:24.377Z,19.92
2024-01-30T06:07:27.010Z,19.83
2024-01-30T06:10:29.822Z,19.45
2024-01-30T06:13:33.217Z,32.78
2024-01-30T06:16:35.789Z,38.88
2024-01-30T06:19:38.355Z,38.58
2024-01-30T06:22:40.936Z,36.08
2024-01-30T06:25:43.430Z,33.90
2024-01-30T06:28:45.881Z,29.65
2024-01-30T06:31:48.384Z,28.45
2024-01-30T06:34:50.938Z,28.73
2024-01-30T06:37:53.616Z,26.90
2024-01-30T06:40:56.535Z,29.60
2024-01-30T06:43:59.050Z,28.77
2024-01-30T06:47:01.699Z,28.75
2024-01-30T06:50:04.829Z,28.65
2024-01-30T06:53:07.317Z,27.25
2024-01-30T06:56:09.773Z,30.10
2024-01-30T06:59:12.245Z,27.55
2024-01-30T07:02:14.891Z,26.23
2024-01-30T07:05:18.794Z,24.85
2024-01-30T07:08:21.924Z,27.50
2024-01-30T07:11:25.395Z,26.83
2024-01-30T07:14:27.916Z,24.15
2024-01-30T07:17:30.572Z,24.37
2024-01-30T07:20:34.012Z,29.12
2024-01-30T07:23:36.592Z,29.02
2024-01-30T07:26:39.111Z,26.15
2024-01-30T07:29:42.040Z,23.45
2024-01-30T07:32:45.908Z,21.70
2024-01-30T07:35:49.249Z,23.25
2024-01-30T07:38:51.844Z,22.55
2024-01-30T07:41:54.332Z,24.87
2024-01-30T07:44:58.447Z,26.02
2024-01-30T07:48:03.071Z,25.80
2024-01-30T07:51:06.472Z,21.57
2024-01-30T07:54:09.191Z,23.17
2024-01-30T07:57:11.834Z,22.48
2024-01-30T08:00:15.434Z,26.08
2024-01-30T08:03:19.456Z,21.77
2024-01-30T08:06:22.067Z,21.55
2024-01-30T08:09:24.673Z,22.02
2024-01-30T08:12:27.229Z,20.08
2024-01-30T08:15:29.748Z,21.37
2024-01-30T08:18:32.284Z,17.92
2024-01-30T08:21:39.665Z,15.77
2024-01-30T08:24:42.795Z,14.70
2024-01-30T08:27:46.416Z,14.80
2024-01-30T08:30:49.169Z,15.20
2024-01-30T08:33:51.750Z,14.05
2024-01-30T08:36:54.578Z,15.07
2024-01-30T08:39:57.184Z,15.38
2024-01-30T08:42:59.945Z,14.20
2024-01-30T08:46:02.602Z,16.40
2024-01-30T08:49:06.213Z,17.70
2024-01-30T08:52:09.452Z,15.60
2024-01-30T08:55:12.610Z,14.70
2024-01-30T08:58:16.678Z,15.32
2024-01-30T09:01:21.086Z,14.73
2024-01-30T09:04:26.760Z,15.63
2024-01-30T09:07:31.124Z,20.23
2024-01-30T09:10:34.057Z,16.87
2024-01-30T09:13:37.423Z,17.87
2024-01-30T09:16:40.142Z,15.15
2024-01-30T09:19:43.919Z,15.60
2024-01-30T09:22:46.486Z,15.57
2024-01-30T09:25:49.481Z,15.23
2024-01-30T09:28:52.080Z,15.18
2024-01-30T09:32:01.208Z,16.95
2024-01-30T09:35:06.323Z,16.05
2024-01-30T09:38:09.024Z,17.00
2024-01-30T09:41:14.556Z,17.00
2024-01-30T09:44:19.858Z,17.12
2024-01-30T09:50:26.485Z,16.80
2024-01-30T09:53:29.197Z,16.52
2024-01-30T09:56:31.718Z,18.37
2024-01-30T09:59:34.209Z,18.10
2024-01-30T10:02:37.338Z,18.35
2024-01-30T10:05:40.297Z,21.70
2024-01-30T10:08:43.917Z,18.48
2024-01-30T10:11:46.416Z,19.20
2024-01-30T10:14:50.187Z,16.20
2024-01-30T10:17:53.127Z,17.83
2024-01-30T10:20:55.891Z,15.77
2024-01-30T10:23:58.654Z,18.12
2024-01-30T10:27:02.041Z,16.40
2024-01-30T10:30:05.954Z,17.25
2024-01-30T10:33:10.161Z,17.98
2024-01-30T10:36:21.061Z,20.75
2024-01-30T10:39:24.886Z,19.00
2024-01-30T10:42:29.060Z,18.98
2024-01-30T10:45:32.944Z,17.77
2024-01-30T10:48:35.653Z,18.45
2024-01-30T10:51:38.453Z,27.02
2024-01-30T10:54:42.004Z,18.45
2024-01-30T10:57:44.872Z,17.70
2024-01-30T11:00:47.824Z,17.42
2024-01-30T11:03:53.563Z,18.62
2024-01-30T11:06:56.205Z,18.10
2024-01-30T11:09:59.858Z,17.87
2024-01-30T11:13:11.630Z,18.37
2024-01-30T11:16:14.515Z,18.42
2024-01-30T11:19:17.380Z,18.98
2024-01-30T11:22:22.150Z,19.48
2024-01-30T11:25:25.261Z,19.83
2024-01-30T11:28:31.932Z,20.30
2024-01-30T11:31:34.761Z,18.75
2024-01-30T11:34:37.477Z,20.48
2024-01-30T11:37:40.674Z,19.00
2024-01-30T11:40:44.984Z,16.87
2024-01-30T11:43:54.432Z,18.13
2024-01-30T11:46:57.223Z,17.12
2024-01-30T11:50:01.226Z,18.83
2024-01-30T11:53:04.292Z,17.20
2024-01-30T11:56:09.968Z,18.30
2024-01-30T11:59:12.453Z,16.92
2024-01-30T12:02:18.751Z,16.20
2024-01-30T12:05:24.721Z,17.40
2024-01-30T12:08:28.842Z,17.52
2024-01-30T12:11:31.668Z,16.95
2024-01-30T12:14:35.280Z,15.93
2024-01-30T12:17:39.103Z,14.93
2024-01-30T12:20:42.147Z,16.10
2024-01-30T12:23:45.187Z,14.68
2024-01-30T12:26:48.411Z,14.52
2024-01-30T12:29:57.842Z,15.27
2024-01-30T12:33:02.788Z,16.75
2024-01-30T12:36:06.566Z,17.02
2024-01-30T12:39:14.051Z,16.40
2024-01-30T12:42:16.556Z,15.27
2024-01-30T12:45:23.735Z,15.93
2024-01-30T12:48:26.955Z,16.00
2024-01-30T12:51:30.186Z,15.25
2024-01-30T12:54:33.332Z,15.75
2024-01-30T12:57:36.567Z,15.52
2024-01-30T13:00:39.991Z,15.32
2024-01-30T13:03:43.739Z,19.83
2024-01-30T13:06:47.712Z,16.17
2024-01-30T13:09:50.597Z,15.52
2024-01-30T13:12:54.291Z,14.87
2024-01-30T13:15:56.821Z,16.20
2024-01-30T13:18:59.506Z,15.02
2024-01-30T13:22:02.203Z,12.80
2024-01-30T13:25:04.958Z,12.10
2024-01-30T13:28:07.470Z,15.68
2024-01-30T13:31:10.079Z,15.02
2024-01-30T13:34:13.105Z,14.70
2024-01-30T13:37:16.140Z,12.10
2024-01-30T13:40:18.822Z,12.25
2024-01-30T13:43:21.437Z,10.32
2024-01-30T13:46:24.135Z,5.65
2024-01-30T13:49:26.668Z,5.10
2024-01-30T13:52:32.768Z,5.22
2024-01-30T13:55:41.088Z,5.28
2024-01-30T13:58:43.734Z,5.45
2024-01-30T14:01:46.455Z,7.82
2024-01-30T14:04:49.148Z,9.40
2024-01-30T14:07:52.988Z,9.27
2024-01-30T14:10:57.383Z,10.52
2024-01-30T14:14:00.413Z,9.90
2024-01-30T14:17:02.918Z,9.00
2024-01-30T14:20:06.113Z,8.32
2024-01-30T14:23:08.600Z,9.85
2024-01-30T14:26:11.221Z,10.82
2024-01-30T14:29:13.760Z,10.80
2024-01-30T14:32:16.254Z,11.23
2024-01-30T14:35:19.138Z,11.95
2024-01-30T14:38:22.574Z,12.55
2024-01-30T14:41:25.133Z,15.07
2024-01-30T14:44:27.674Z,15.25
2024-01-30T14:47:30.523Z,18.23
2024-01-30T14:50:33.168Z,16.08
2024-01-30T14:53:35.676Z,17.35
2024-01-30T14:56:38.226Z,19.35
2024-01-30T14:59:40.747Z,19.40
2024-01-30T15:02:43.261Z,20.30
2024-01-30T15:05:45.786Z,18.75
2024-01-30T15:08:48.302Z,18.10
2024-01-30T15:11:51.605Z,18.52
2024-01-30T15:14:54.185Z,17.87
2024-01-30T15:17:56.812Z,18.67
2024-01-30T15:20:59.321Z,17.92
2024-01-30T15:24:03.047Z,19.60
2024-01-30T15:27:05.871Z,23.85
2024-01-30T15:30:08.845Z,20.67
2024-01-30T15:33:11.728Z,30.17
2024-01-30T15:36:17.238Z,38.95
2024-01-30T15:39:20.704Z,41.72
2024-01-30T15:42:23.182Z,45.92
2024-01-30T15:45:28.120Z,46.13
2024-01-30T15:48:31.883Z,41.00
2024-01-30T15:51:34.419Z,30.73
2024-01-30T15:54:36.830Z,31.55
2024-01-30T15:57:40.723Z,27.67
2024-01-30T16:00:43.424Z,27.37
2024-01-30T16:03:49.131Z,33.55
